This is the latest recevied weather packets stored in our database for station/object KD7ECD. If no packets are shown the sender has not sent any weather packets the latest 10 day(s).
| Time | Temp. | Humidity | Pressure | Rain* | Wind** | Luminosity | Snow |
|---|---|---|---|---|---|---|---|
| 1777693488 | 13.89° C | 87% | 1015.4 hPa | 0 mm | - | 0 W/m² | - |
| 1777692883 | 13.89° C | 85% | 1015.1 hPa | 0 mm | - | 0 W/m² | - |
| 1777692282 | 14.44° C | 84% | 1015 hPa | 0 mm | - | 0 W/m² | - |
| 1777691678 | 15° C | 82% | 1014.7 hPa | 0 mm | - | 0 W/m² | - |
| 1777691073 | 15.56° C | 80% | 1014.7 hPa | 0 mm | - | 0 W/m² | - |
| 1777690473 | 16.11° C | 78% | 1014.4 hPa | 0 mm | - | 3 W/m² | - |
| 1777689869 | 17.22° C | 76% | 1014.6 hPa | 0 mm | - | 7 W/m² | - |
| 1777689264 | 17.78° C | 74% | 1014.5 hPa | 0 mm | - | 15 W/m² | - |
| 1777688664 | 18.33° C | 72% | 1014.5 hPa | 0 mm | - | 23 W/m² | - |
| 1777688064 | 18.89° C | 70% | 1014.5 hPa | 0 mm | - | 30 W/m² | - |
| 1777687459 | 19.44° C | 69% | 1014.5 hPa | 0 mm | - | 35 W/m² | - |
| 1777686859 | 19.44° C | 69% | 1014.2 hPa | 0 mm | - | 35 W/m² | - |
| 1777686258 | 20° C | 66% | 1014.2 hPa | 0 mm | - | 41 W/m² | - |
| 1777685656 | 21.67° C | 61% | 1014.2 hPa | 0 mm | - | 139 W/m² | - |
| 1777685051 | 22.22° C | 58% | 1014.4 hPa | 0 mm | - | 167 W/m² | - |
| 1777684450 | 22.22° C | 55% | 1014.3 hPa | 0 mm | - | 74 W/m² | - |
| 1777683849 | 22.78° C | 55% | 1014.2 hPa | 0 mm | - | 251 W/m² | - |
| 1777683244 | 22.78° C | 56% | 1014.3 hPa | 0 mm | - | 239 W/m² | - |
| 1777682643 | 23.33° C | 55% | 1014.3 hPa | 0 mm | - | 186 W/m² | - |
| 1777682038 | 23.33° C | 55% | 1014.3 hPa | 0 mm | - | 324 W/m² | - |
| 1777681437 | 23.89° C | 54% | 1014.3 hPa | 0 mm | - | 251 W/m² | - |
| 1777680838 | 23.89° C | 53% | 1014.4 hPa | 0 mm | - | 223 W/m² | - |
| 1777680234 | 23.89° C | 53% | 1014.3 hPa | 0 mm | - | 410 W/m² | - |
| 1777679631 | 24.44° C | 53% | 1014.4 hPa | 0 mm | - | 393 W/m² | - |
| 1777679029 | 24.44° C | 53% | 1014.5 hPa | 0 mm | - | 327 W/m² | - |
* Rain latest hour (hover to see other rain measurements)
** Current wind speed in m/s (hover to see current wind gust speed)